NCAR-RAP Real-Time Weather Data

Output produced by METARs form (12 May 2021  10:41 UTC)
found at http://weather.rap.ucar.edu/surface/
 
KISP 120956Z 28008KT 10SM FEW100 FEW200 FEW250 07/00 A3010 RMK AO2 SLP194 T00720000
KISP 120856Z AUTO 29010KT 10SM CLR 08/M01 A3009 RMK AO2 SLP190 T00781006 53005
KISP 120756Z AUTO 29011KT 10SM CLR 09/M02 A3009 RMK AO2 SLP188 T00891017
KISP 120656Z AUTO 28010KT 10SM CLR 09/M02 A3008 RMK AO2 SLP186 T00941017
KISP 120556Z AUTO 31015KT 10SM CLR 11/M03 A3008 RMK AO2 SLP184 T01061028 10139 20106 50012
KISP 120456Z AUTO 31010KT 10SM BKN100 11/M03 A3008 RMK AO2 SLP187 T01111033 401890078
KISP 120356Z 31011KT 10SM FEW080 OVC100 12/M02 A3007 RMK AO2 SLP182 LAST T01221022
KISP 120256Z 31012KT 10SM FEW070 BKN095 13/01 A3004 RMK AO2 SLP172 T01280011 51015
KISP 120156Z 30007KT 10SM FEW070 BKN110 BKN250 13/02 A3003 RMK AO2 SLP169 T01330017
KISP 120056Z 30006KT 10SM SCT075 BKN095 13/06 A3001 RMK AO2 SLP162 T01330056
KISP 112356Z 26003KT 10SM BKN080 BKN095 BKN250 13/07 A3000 RMK AO2 SLP157 T01280067 10189 20128 51005
KISP 112256Z 23007KT 10SM SCT070 BKN090 13/07 A3000 RMK AO2 SLP157 VIRGA OHD T01330067
KISP 112156Z 23012KT 10SM FEW060 BKN080 BKN100 13/05 A3000 RMK AO2 SLP157 T01330050
KISP 112056Z 23010G17KT 10SM SCT060 BKN090 BKN250 14/04 A2998 RMK AO2 SLP152 VIRGA S-W T01440039 55001
KISP 111956Z 22018G23KT 10SM SCT065 BKN100 BKN250 16/04 A2998 RMK AO2 WSHFT 1927 SLP151 T01560039
KISP 111943Z 21016G22KT 10SM BKN065 BKN100 17/04 A2998 RMK AO2 WSHFT 1927 T01720044
KISP 111856Z 27012G20KT 10SM SCT065 SCT100 19/M01 A2998 RMK AO2 SLP152 T01891011